Impacts TAF Board INFO
FOR SITUATIONAL AWARENESS. NOT TO BE USED FOR FLIGHT PLANNING PURPOSES.
IDs:

KSLC - Salt Lake City Intl, UT, US

Issued at 1740 UTC 25 Feb 2018
Updated at 1747 UTC 25 Feb 2018
Potential Impact None Slight Moderate High
Time1654Z 25/18Z 25/19Z 25/20Z 25/21Z 25/22Z 25/23Z 26/00Z 26/01Z 26/02Z 26/03Z 26/04Z 26/05Z 26/06Z>>
Type OBS PRVL PRVL PRVL PRVL PRVL PRVL PRVL PRVL PRVL PRVL PRVL PRVL PRVL
VIS 10 >6 >6 >6 >6 >6 >6 >6 >6 >6 >6 >6 >6 >6
CIG -- -- -- -- -- 120 120 120 120 120 120 120 120 120
Cover SCT SCT SCT SCT SCT BKN BKN BKN BKN BKN BKN BKN BKN BKN
FltCat VFR VFR VFR VFR VFR VFR VFR VFR VFR VFR VFR VFR VFR VFR
WX -- -- -- -- -- -- -- -- -- -- -- -- -- --
WDir 270 350 160 160 160 170 170 170 170 170 170 170 170 170
WSpd 5 5 7 7 7 13 13 13 13 13 13 13 13 13
WGst -- -- -- -- -- -- -- -- -- -- -- -- -- --

Raw TAF
KSLC 251740Z 2518/2624 35005KT P6SM SCT060 SCT200
  FM251900 16007KT P6SM SCT060 SCT200
  FM252200 17013KT P6SM SCT060 BKN120
  FM260900 15017G24KT P6SM SCT050 BKN080


Raw METAR
KSLC 251654Z 27005KT 10SM FEW035 SCT055 SCT200 M01/M11 A3024 RMK AO2 SLP256 T10061106
KSLC 251554Z 26005KT 10SM FEW030 BKN055 M02/M11 A3022 RMK AO2 SLP255 SH DSNT NE-SE T10221111
KSLC 251454Z 22004KT 10SM FEW030 BKN055 M03/M11 A3019 RMK AO2 SLP243 SH DSNT NE-SE 60000 T10281106 53020

METAR Board
Radar Display
Forecast Discussion

FOR SITUATIONAL AWARENESS. NOT TO BE USED FOR FLIGHT PLANNING PURPOSES.